EBCI - Charleroi/Gosselies, Belgium
Distance de la station: NE 18km
Mise à jour: 01/03/2021 11:38
unable to load EBCI data RC=
unable to load EBCI data RC=
 
EBFS - Florennes, Belgium
Distance de la station: ESE 31km
Mise à jour: 01/03/2021 11:38
unable to load EBFS data RC=
unable to load EBFS data RC=
 
EBCV - Chievres, Belgium
Distance de la station: NO 40km
Mise à jour: 01/03/2021 11:25
principalement nuageux
principalement nuageux
 Wind from ENE
Vent: ENE 15 km/h
Température: 4°C
Température ressentie: 1°C
Point de rosée: 3°C
Humidité: 93%
Baromètre: 1032 hPa
Ciel: principalement nuageux
Visibilité: 6 km
Détails du ciel: principalement nuageux 122 m
2021/03/01 10:25 EBCV 011025Z AUTO 07008KT 6000 BKN004/// 04/03 Q1032 YLO
 
EBBE - Beauvechain, Belgium
Distance de la station: NE 57km
Mise à jour: 01/03/2021 11:25
brume, principalement nuageux
brume, principalement nuageux
 Wind from ENE
Vent: ENE 11 km/h
Température: 5°C
Température ressentie: 2°C
Point de rosée: 4°C
Humidité: 93%
Baromètre: 1032 hPa
Résumé: brume
Ciel: principalement nuageux
Visibilité: 3 km
Détails du ciel: quelques nuages 61 m
principalement nuageux 91 m
2021/03/01 10:25 EBBE 011025Z 06006KT 3000 BR FEW002 BKN003 05/04 Q1032 YLO YLO BECMG GRN
EBBR - Brussels National, Belgium
Distance de la station: NNE 63km
Mise à jour: 01/03/2021 11:20
brume, principalement nuageux
brume, principalement nuageux
 Wind from E
Vent: E 9 km/h
Température: 4°C
Température ressentie: 2°C
Point de rosée: 2°C
Humidité: 87%
Baromètre: 1033 hPa
Résumé: brume
Ciel: principalement nuageux
Visibilité: 4 km
Détails du ciel: principalement nuageux 213 m
2021/03/01 10:20 EBBR 011020Z 09005KT 4000 BR BKN007 04/02 Q1033 BECMG 9000 NSW SCT008
LFQI - Cambrai/Epinoy, France
Distance de la station: O 82km
Mise à jour: 29/06/2012 12:30
NOT Current

 Wind from SO
Vent: SO 17 km/h
Température: 18°C
Point de rosée: 14°C
Humidité: 78%
Baromètre: 1009 hPa
2012/06/29 10:30 LFQI 291030Z AUTO 22009KT //// // ///////// 18/14 Q1009
 
LFQQ - Lille/Lesquin, France
Distance de la station: ONO 86km
Mise à jour: 01/03/2021 11:30
partiellement nuageux
partiellement nuageux
 Wind from NE
Vent: NE 15 km/h
Température: 7°C
Température ressentie: 4°C
Point de rosée: 3°C
Humidité: 76%
Baromètre: 1032 hPa
Ciel: partiellement nuageux
Visibilité: 8 km
2021/03/01 10:30 LFQQ 011030Z AUTO 05008KT 8000 NSC 07/03 Q1032 NOSIG
EBLG - Bierset/Liege, Belgium
Distance de la station: ENE 89km
Mise à jour: 01/03/2021 11:20
quelques nuages
quelques nuages
 Wind from NNE
Vent: NNE 13 km/h
Température: 6°C
Température ressentie: 3°C
Point de rosée: 3°C
Humidité: 81%
Baromètre: 1032 hPa
Ciel: quelques nuages
Visibilité: 9 km
Détails du ciel: quelques nuages 91 m
2021/03/01 10:20 EBLG 011020Z 02007KT 9000 FEW003 06/03 Q1032 NOSIG
EBDT - Schaffen, Belgium
Distance de la station: NE 93km
Mise à jour: 01/03/2021 11:25
brume, couvert
brume, couvert
 Wind from NE
Vent: NE 11 km/h
Température: 6°C
Température ressentie: 4°C
Point de rosée: 4°C
Humidité: 87%
Baromètre: 1033 hPa
Résumé: brume
Ciel: couvert
Visibilité: 3 km
Détails du ciel: partiellement nuageux 183 m
principalement nuageux 244 m
couvert 3048 m
2021/03/01 10:25 EBDT 011025Z AUTO 04006KT 3400 BR SCT006/// BKN008/// OVC100/// 06/04 Q1033 YLO
 
EBAW - Antwerp/Deurne, Belgium
Distance de la station: N 96km
Mise à jour: 01/03/2021 11:20
brume, principalement nuageux
brume, principalement nuageux
 Wind from ESE
Vent: ESE 15 km/h
Température: 4°C
Température ressentie: 1°C
Point de rosée: 3°C
Humidité: 93%
Baromètre: 1033 hPa
Résumé: brume
Ciel: principalement nuageux
Visibilité: 5 km
Détails du ciel: principalement nuageux 152 m
2021/03/01 10:20 EBAW 011020Z 11008KT 4600 BR BKN005 04/03 Q1033 BECMG 8000 NSW FEW010
LFAQ - Bray, France
Distance de la station: OSO 119km
Mise à jour: 01/03/2021 11:30
clair
clair
 Wind from E
Vent: E 19 km/h
Température: 9°C
Température ressentie: 6°C
Point de rosée: 1°C
Humidité: 58%
Baromètre: 1030 hPa
Résumé: clair
Visibilité: greater than 10 km
2021/03/01 10:30 LFAQ 011030Z AUTO 10010KT CAVOK 09/01 Q1030 NOSIG
LFSR - Reims/Champagne, France
Distance de la station: S 120km
Mise à jour: 16/04/2012 09:00
NOT Current
partiellement nuageux
partiellement nuageux
 Wind from N
Vent: N 17 km/h
Température: 4°C
Température ressentie: 0°C
Point de rosée: 0°C
Humidité: 75%
Baromètre: 1022 hPa
Ciel: partiellement nuageux
Visibilité: 10 km
2012/04/16 07:00 LFSR 160700Z AUTO 01009KT 340V070 9999 NSC 04/00 Q1022
 
EHWO - Woensdrecht, Netherlands
Distance de la station: N 122km
Mise à jour: 01/03/2021 11:25
brume, couvert
brume, couvert
 Wind from E
Vent: E 15 km/h
Température: 4°C
Température ressentie: 1°C
Point de rosée: 4°C
Humidité: 100%
Baromètre: 1033 hPa
Résumé: brume
Ciel: couvert
Visibilité: 4 km
Détails du ciel: principalement nuageux 91 m
couvert 122 m
2021/03/01 10:25 EHWO 011025Z AUTO 08008KT 040V120 4100 BR BKN003 OVC004 04/04 Q1033 YLO
EHBK - Zuid-Limburg, Netherlands
Distance de la station: ENE 123km
Mise à jour: 01/03/2021 11:25
brume, principalement nuageux
brume, principalement nuageux
 Wind from ENE
Vent: ENE 22 km/h
Température: 4°C
Température ressentie: -1°C
Point de rosée: 3°C
Humidité: 93%
Baromètre: 1032 hPa
Résumé: brume
Ciel: principalement nuageux
Visibilité: 5 km
Détails du ciel: partiellement nuageux 122 m
principalement nuageux 152 m
2021/03/01 10:25 EHBK 011025Z AUTO 06012KT 5000 BR SCT004 BKN005 04/03 Q1032 BECMG CAVOK
EBBL - Kleine-Brogel, Belgium
Distance de la station: NE 124km
Mise à jour: 01/03/2021 11:25
brume, principalement nuageux
brume, principalement nuageux
 Wind from NE
Vent: NE 15 km/h
Température: 4°C
Température ressentie: 1°C
Point de rosée: 3°C
Humidité: 93%
Baromètre: 1033 hPa
Résumé: brume
Ciel: principalement nuageux
Visibilité: 3 km
Détails du ciel: principalement nuageux 152 m
2021/03/01 10:25 EBBL 011025Z 05008KT 2800 BR BKN005 04/03 Q1033 YLO YLO
 
EBLB - Elsenborn, Belgium
Distance de la station: E 135km
Mise à jour: 01/03/2021 11:25
clair
clair
 Wind from ESE
Vent: ESE 17 km/h
Température: 10°C
Température ressentie: 8°C
Point de rosée: -6°C
Humidité: 32%
Baromètre: 1031 hPa
Ciel: clair
Visibilité: 10 km
2021/03/01 10:25 EBLB 011025Z AUTO 12009KT 9999 NCD 10/M06 Q1031 BLU
EBOS - Oostende Airport, Belgium
Distance de la station: NO 136km
Mise à jour: 01/03/2021 11:20
brume, principalement nuageux
brume, principalement nuageux
 Wind from E
Vent: E 15 km/h
Température: 3°C
Température ressentie: -1°C
Point de rosée: 2°C
Humidité: 93%
Baromètre: 1033 hPa
Résumé: brume
Ciel: principalement nuageux
Visibilité: 2 km
Détails du ciel: principalement nuageux 91 m
2021/03/01 10:20 EBOS 011020Z 09008KT 1600 BR BKN003 03/02 Q1033 BECMG 3200 BR BKN006
EBFN - Koksijde, Belgium
Distance de la station: NO 140km
Mise à jour: 01/03/2021 11:25
brouillard, couvert
brouillard, couvert
 Wind from E
Vent: E 15 km/h
Température: 3°C
Température ressentie: -1°C
Point de rosée: 3°C
Humidité: 100%
Baromètre: 1033 hPa
Résumé: brouillard
Ciel: couvert
Visibilité: 1 km
Détails du ciel: couvert 61 m
2021/03/01 10:25 EBFN 011025Z 09008KT 1000 FG OVC002 03/03 Q1033 AMB AMB BECMG YLO
 
ETNG - Geilenkirchen, Germany
Distance de la station: ENE 142km
Mise à jour: 01/03/2021 11:32
brume, partiellement nuageux
brume, partiellement nuageux
 Wind from E
Vent: E 17 km/h
Température: 5°C
Température ressentie: 2°C
Point de rosée: 5°C
Humidité: 100%
Baromètre: 1033 hPa
Résumé: brume
Ciel: partiellement nuageux
Visibilité: 5 km
Détails du ciel: partiellement nuageux 213 m
2021/03/01 10:32 ETNG 011032Z 09009KT 5000 BR SCT007 05/05 Q1033 BECMG NSC
EHGR - Gilze-Rijen, Netherlands
Distance de la station: NNE 143km
Mise à jour: 01/03/2021 11:25
brume, couvert
brume, couvert
 Wind from ENE
Vent: ENE 15 km/h
Température: 4°C
Température ressentie: 1°C
Point de rosée: 4°C
Humidité: 100%
Baromètre: 1034 hPa
Résumé: brume
Ciel: couvert
Visibilité: 5 km
Détails du ciel: couvert 122 m
2021/03/01 10:25 EHGR 011025Z AUTO 06008KT 020V110 5000 BR OVC004 04/04 Q1034 YLO BECMG 5000 BR BKN003 OVC005
EHEH - Eindhoven, Netherlands
Distance de la station: NNE 147km
Mise à jour: 01/03/2021 11:25
brume, couvert
brume, couvert
 Wind from ENE
Vent: ENE 15 km/h
Température: 5°C
Température ressentie: 2°C
Point de rosée: 4°C
Humidité: 93%
Baromètre: 1034 hPa
Résumé: brume
Ciel: couvert
Visibilité: 5 km
Détails du ciel: principalement nuageux 152 m
couvert 183 m
2021/03/01 10:25 EHEH 011025Z AUTO 06008KT 020V110 5000 BR BKN005 OVC006 05/04 Q1034 YLO BECMG FEW008 SCT010
 
ELLX - Luxembourg, Luxembourg
Distance de la station: ESE 162km
Mise à jour: 01/03/2021 11:20
clair
clair
 Wind from ENE
Vent: ENE 15 km/h
Température: 7°C
Température ressentie: 4°C
Point de rosée: 0°C
Humidité: 61%
Baromètre: 1030 hPa
Résumé: clair
Visibilité: greater than 10 km
2021/03/01 10:20 ELLX 011020Z 06008KT 030V090 CAVOK 07/M00 Q1030 NOSIG
EHVK - Volkel, Netherlands
Distance de la station: NE 174km
Mise à jour: 01/03/2021 11:25
brume, couvert
brume, couvert
 Wind from E
Vent: E 19 km/h
Température: 4°C
Température ressentie: 0°C
Point de rosée: 3°C
Humidité: 93%
Baromètre: 1034 hPa
Résumé: brume
Ciel: couvert
Visibilité: 6 km
Détails du ciel: couvert 122 m
2021/03/01 10:25 EHVK 011025Z AUTO 08010KT 040V110 6000 BR OVC004 04/03 Q1034 YLO BECMG OVC005
LFOK - Chalons/Vatry, France
Distance de la station: S 174km
Mise à jour: 01/03/2021 11:30
clair
clair
 Wind from ENE
Vent: ENE 15 km/h
Température: 7°C
Température ressentie: 4°C
Point de rosée: 1°C
Humidité: 66%
Baromètre: 1029 hPa
Résumé: clair
Visibilité: greater than 10 km
2021/03/01 10:30 LFOK 011030Z AUTO 07008KT CAVOK 07/01 Q1029 NOSIG
Script from Saratoga-Weather.org